createdAt,value
2018-11-22T00:10:00.640Z,2.50
2018-11-22T00:20:19.551Z,2.47
2018-11-22T00:30:38.247Z,2.44
2018-11-22T00:40:57.141Z,2.33
2018-11-22T00:51:15.865Z,2.31
2018-11-22T01:01:34.633Z,2.44
2018-11-22T01:11:53.292Z,2.34
2018-11-22T01:22:11.962Z,2.47
2018-11-22T01:32:30.786Z,2.37
2018-11-22T01:42:49.508Z,2.37
2018-11-22T01:53:08.198Z,2.26
2018-11-22T02:03:27.138Z,2.23
2018-11-22T02:13:45.872Z,2.13
2018-11-22T02:24:05.584Z,2.17
2018-11-22T02:34:24.391Z,2.10
2018-11-22T02:44:44.039Z,2.09
2018-11-22T02:55:03.519Z,2.12
2018-11-22T03:05:22.157Z,2.14
2018-11-22T03:15:40.997Z,2.15
2018-11-22T03:25:59.765Z,2.12
2018-11-22T03:36:18.532Z,2.04
2018-11-22T03:46:37.927Z,2.03
2018-11-22T03:56:56.744Z,2.01
2018-11-22T04:07:15.666Z,1.93
2018-11-22T04:17:34.272Z,1.99
2018-11-22T04:27:53.070Z,1.96
2018-11-22T04:38:12.071Z,1.95
2018-11-22T04:48:30.608Z,1.89
2018-11-22T04:58:49.703Z,1.92
2018-11-22T05:09:09.604Z,1.93
2018-11-22T05:19:28.324Z,1.94
2018-11-22T05:29:47.142Z,1.92
2018-11-22T05:40:08.682Z,2.02
2018-11-22T05:50:29.551Z,1.99
2018-11-22T06:00:48.261Z,1.98
2018-11-22T06:11:07.047Z,1.96
2018-11-22T06:21:28.425Z,1.97
2018-11-22T06:31:46.800Z,2.02
2018-11-22T06:42:05.388Z,2.03
2018-11-22T06:52:24.775Z,2.05
2018-11-22T07:02:43.730Z,2.02
2018-11-22T07:13:02.605Z,2.10
2018-11-22T07:23:21.258Z,2.23
2018-11-22T07:33:40.120Z,2.30
2018-11-22T07:43:58.687Z,2.36
2018-11-22T07:54:17.456Z,2.48
2018-11-22T08:04:36.092Z,2.62
2018-11-22T08:14:54.958Z,2.82
2018-11-22T08:25:15.168Z,3.08
2018-11-22T08:35:33.935Z,3.61
2018-11-22T08:45:52.618Z,4.01
2018-11-22T08:56:11.355Z,4.05
2018-11-22T09:06:30.267Z,4.51
2018-11-22T09:16:50.690Z,4.54
2018-11-22T09:27:15.401Z,4.34
2018-11-22T09:37:37.927Z,4.40
2018-11-22T09:47:58.673Z,4.75
2018-11-22T09:58:18.706Z,5.03
2018-11-22T10:08:44.088Z,4.85
2018-11-22T10:19:04.202Z,4.73
2018-11-22T10:29:24.551Z,4.54
2018-11-22T10:39:43.919Z,4.99
2018-11-22T10:50:04.838Z,4.64
2018-11-22T11:00:43.278Z,5.09
2018-11-22T11:11:03.845Z,5.13
2018-11-22T11:21:23.533Z,4.97
2018-11-22T11:31:43.450Z,5.19
2018-11-22T11:42:02.787Z,4.80
2018-11-22T11:52:23.204Z,4.51
2018-11-22T12:02:44.153Z,4.19
2018-11-22T12:13:05.009Z,3.99
2018-11-22T12:23:25.948Z,3.86
2018-11-22T12:34:05.442Z,3.80
2018-11-22T12:44:26.215Z,3.62
2018-11-22T12:54:46.453Z,3.43
2018-11-22T13:05:07.751Z,3.38
2018-11-22T13:15:28.042Z,3.10
2018-11-22T13:25:48.093Z,3.08
2018-11-22T13:36:08.478Z,3.27
2018-11-22T13:46:28.013Z,3.08
2018-11-22T13:56:48.006Z,3.07
2018-11-22T14:07:07.598Z,3.10
2018-11-22T14:17:27.075Z,2.77
2018-11-22T14:27:47.822Z,2.61
2018-11-22T14:38:06.879Z,2.67
2018-11-22T14:48:26.071Z,2.55
2018-11-22T14:58:45.859Z,2.61
2018-11-22T15:09:07.386Z,2.59
2018-11-22T15:19:27.141Z,2.39
2018-11-22T15:29:46.628Z,2.40
2018-11-22T15:40:08.354Z,2.43
2018-11-22T15:50:28.395Z,2.40
2018-11-22T16:00:48.457Z,2.41
2018-11-22T16:11:10.899Z,2.34
2018-11-22T16:21:28.294Z,2.32
2018-11-22T16:31:48.762Z,2.28
2018-11-22T16:42:09.216Z,2.30
2018-11-22T16:52:30.791Z,2.31
2018-11-22T17:02:52.889Z,2.28
2018-11-22T17:13:15.427Z,2.31
2018-11-22T17:23:37.823Z,2.38
2018-11-22T17:33:59.561Z,2.42
2018-11-22T17:44:21.709Z,2.39
2018-11-22T17:54:43.850Z,2.41
2018-11-22T18:05:05.696Z,2.43
2018-11-22T18:15:29.980Z,2.45
2018-11-22T18:25:53.590Z,2.46
2018-11-22T18:36:17.141Z,2.43
2018-11-22T18:46:39.827Z,2.37
2018-11-22T18:57:03.196Z,2.33
2018-11-22T19:07:23.494Z,2.34
2018-11-22T19:17:42.481Z,2.34
2018-11-22T19:28:02.206Z,2.34
2018-11-22T19:38:21.102Z,2.31
2018-11-22T19:48:39.596Z,2.36
2018-11-22T19:58:58.514Z,2.36
2018-11-22T20:09:25.033Z,2.37
2018-11-22T20:19:43.983Z,2.32
2018-11-22T20:30:03.452Z,2.40
2018-11-22T20:40:23.815Z,2.46
2018-11-22T20:50:42.487Z,2.34
2018-11-22T21:01:01.232Z,2.32
2018-11-22T21:11:19.966Z,2.30
2018-11-22T21:21:38.513Z,2.36
2018-11-22T21:31:57.499Z,2.34
2018-11-22T21:42:36.568Z,2.35
2018-11-22T22:04:12.409Z,2.32
2018-11-22T22:25:26.596Z,2.21
2018-11-22T23:08:54.409Z,2.12
2018-11-22T23:19:03.006Z,2.22
2018-11-22T23:29:21.615Z,2.10
2018-11-22T23:39:40.260Z,2.13
2018-11-22T23:49:59.047Z,2.07
